Belding, MI (48809)

4:32 AM EST on December 05, 2016 (GMT -0500)
| | Change Station

Elev -9999 ft 0.00 °N, 0.00 °E | Updated

Cloudy
Cloudy
34 °F
Feels Like 25 °F
N
11
Wind Variable Wind from WSW
Gusts 19 mph

Today
High -- | Low -- °F
--% Chance of Precip.
Yesterday
High -- | Low -- °F
Precip. -- in
Pressure 29.88 in
Visibility 7.0 miles
Clouds Mostly Cloudy 1800 ft
Overcast 2500 ft
Windchill 25 °F
Dew Point 31 °F
Humidity 88%
Rainfall --
Snow Depth Not available.
7:57 AM 5:06 PM
Waxing Crescent, 30% visible
METAR KY70 050913Z AUTO 25010KT 7SM BKN018 OVC025 01/00 A2988 RMK AO2 T00060000
Pressure 29.88 in
Visibility 7.0 miles
Clouds Mostly Cloudy 1800 ft
Overcast 2500 ft
Windchill 25 °F
Dew Point 31 °F
Humidity 88%
Rainfall --
Snow Depth Not available.
7:57 AM 5:06 PM
Waxing Crescent, 30% visible
METAR KY70 050913Z AUTO 25010KT 7SM BKN018 OVC025 01/00 A2988 RMK AO2 T00060000

10-Day Weather Forecast

Almanac

Astronomy

Dec. 05, 2016 Rise Set
Actual Time
Civil Twilight
Nautical Twilight
Astronomical Twilight
Moon
Length of Visible Light
Length of Day
Tomorrow will be .
, % of the Moon is Illuminated

Today's Extremes

State Highs State Lows

Community

WunderPhotos

Upload Photos

1,955,775 photos uploaded!

WunderBlog® & News

Nearby

Air Quality

  Air Quality AQ Index Pollutant
Not available.

Snow Depth

Station Depth Elevation

Earthquake Activity

City Distance Mag. Time & Date
Minimum magnitude displayed is 2.5.

Coastal Water Temperatures

Place Temperature

Stations

Nearby Weather Stations

Station Location Temp. Windchill Dew Point Humidity Wind Precip. Elev Updated Type
                   

Watches & Warnings

There are currently no watches in effect.